Weser, Texas
Current Conditions -  °F | °C
As of 2:35 AM on Friday 31 Oct 2014 (Local Time) from KBEA Reporting Station
Moderate Fog Moderate Fog  
Wind Chill: 66°   Ceiling: 200
Heat Index: 66°   Visibility: 0.25mi
Dew Point: 66°   Wind: 0mph
Humidity: 100%   Direction: NA
Pressure: 30.07"   Gusts: NA
Location:  28.6563°N, 97.4287°W
Report Text: KBEA 310735Z AUTO 00000KT 1/4SM FG VV002 19/19 A3007 RMK AO2 T01890189
Loading
Personal Weather Stations






























Interactive Weather Map
Tropical Storm Tracking
New forecast layout! Learn more

10-Day Weather Forecast

Advertisements
Track Severe Weather on mobile